www.dot.state.il.us - /desenv/hwystds/Rev215/Revision 215 pdfs/


[To Parent Directory]

Friday, September 13, 2013 9:04 AM 35554617 1_Rev215_AllHighwayStandards_PDF.exe
Tuesday, August 20, 2013 2:18 PM 933136 1_Rev215_Div000_PDF.exe
Tuesday, August 20, 2013 2:19 PM 514698 1_Rev215_Div200_PDF.exe
Tuesday, August 20, 2013 2:19 PM 259027 1_Rev215_Div300_PDF.exe
Tuesday, August 20, 2013 2:20 PM 5785077 1_Rev215_Div400_PDF.exe
Tuesday, August 20, 2013 2:20 PM 7659852 1_Rev215_Div500_PDF.exe
Friday, September 13, 2013 9:05 AM 10285286 1_Rev215_Div600_PDF.exe
Tuesday, August 20, 2013 2:21 PM 5102136 1_Rev215_Div700_PDF.exe
Tuesday, August 20, 2013 2:22 PM 4703038 1_Rev215_Div800_PDF.exe
Tuesday, August 20, 2013 2:22 PM 1887888 1_Rev215_DivBLR_PDF.exe
Friday, October 12, 2012 10:41 AM 615740 215-000001-06_standardsymbolsabbreviations&patterns.pdf
Friday, October 12, 2012 10:41 AM 78905 215-001001-02_areasofreinfrebars.pdf
Friday, October 12, 2012 10:41 AM 105595 215-001006_decimalofinch&foot.pdf
Friday, October 12, 2012 10:41 AM 59581 215-202001-01_earthmedditchcheck.pdf
Friday, October 12, 2012 10:41 AM 206626 215-280001-07_temperosioncntrlsystems.pdf
Friday, October 12, 2012 10:41 AM 100303 215-285001-02_fabricformedconcrevetmentmats.pdf
Friday, October 12, 2012 10:41 AM 99406 215-353001-04_pccbsecsewithhmabind&surfcses.pdf
Friday, October 12, 2012 10:41 AM 205310 215-406001-05_entrramptermflexpvmt.pdf
Friday, October 12, 2012 10:41 AM 302177 215-406101-04_exitrampterminal.pdf
Friday, October 12, 2012 10:41 AM 71465 215-406201-01_mailboxturnout.pdf
Friday, October 12, 2012 10:41 AM 198374 215-420001-07_pavementjoints.pdf
Friday, October 12, 2012 10:41 AM 86874 215-420101-04_24ftjointedpccpvmt.pdf
Friday, October 12, 2012 10:41 AM 99317 215-420106-04_36ftjointedpccpvmt.pdf
Friday, October 12, 2012 10:41 AM 230398 215-420111-03_pccpvmtroundouts.pdf
Friday, August 09, 2013 1:59 PM 245804 215-420201-08_entrrampterm-pccadjtopcc.pdf
Friday, August 09, 2013 2:00 PM 251614 215-420206-09_entrrampterm-pccadjtocrc.pdf
Friday, August 09, 2013 2:03 PM 351422 215-420301-05_exitrampterm-pccadjtopcc.pdf
Friday, August 09, 2013 2:04 PM 348831 215-420306-07_exitrampterm-pccadjtocrc.pdf
Friday, August 09, 2013 2:05 PM 175292 215-420401-10_bridgeapproachpvmtconnector.pdf
Friday, October 12, 2012 10:41 AM 87997 215-420501-04_pccpvmt&pccbsecseadjtorrgradexing.pdf
Friday, October 12, 2012 10:41 AM 70422 215-420601-05_24ftpccpvmt.pdf
Friday, October 12, 2012 10:41 AM 92570 215-420701-02_pavementfabric-.pdf
Friday, October 12, 2012 10:42 AM 89659 215-421001-02_barreinfforcrcpvmt.pdf
Friday, August 09, 2013 2:06 PM 308861 215-421101-09_24ftcrcpvmt-wwideflangebeamtermjt.pdf
Friday, August 09, 2013 2:06 PM 306583 215-421106-09_36ftcrcpvmt-wwideflangebeamtermjt.pdf
Friday, October 12, 2012 10:42 AM 222462 215-421201-06_24ftcrcpvmt-wlugsys.pdf
Friday, October 12, 2012 10:42 AM 238427 215-421206-06_36ftcrcpvmt-wlugsys.pdf
Friday, October 12, 2012 10:42 AM 236911 215-424001-07_PerpendicularCurbRamps.pdf
Friday, October 12, 2012 10:42 AM 105055 215-424006-01_DiagonalCurbRamps.pdf
Friday, October 12, 2012 10:42 AM 96205 215-424011-01_CornerParallelCurbRamps.pdf
Friday, October 12, 2012 10:42 AM 125469 215-424016-01_MidBlockCurbRamps.pdf
Friday, August 09, 2013 1:48 PM 115536 215-424021-02_DepressedCorner.pdf
Friday, October 12, 2012 10:42 AM 105981 215-424026-01_EntranceAlleyPedestrianCrossings.pdf
Friday, October 12, 2012 10:42 AM 81890 215-424031-01_MedianPedestrianCrossings.pdf
Friday, October 12, 2012 10:42 AM 144396 215-442001-04_classapatches.pdf
Friday, October 12, 2012 10:42 AM 220582 215-442101-07_classbpatches.pdf
Friday, October 12, 2012 10:42 AM 116492 215-442201-03_classc&dpatches.pdf
Friday, October 12, 2012 10:42 AM 89961 215-482001-02_hmashldadjtoflexpvmt.pdf
Friday, October 12, 2012 10:42 AM 87208 215-482006-03_hmashldadjtorigidpvmt.pdf
Friday, October 12, 2012 10:42 AM 211731 215-482011-03_hmashldstrips(shlds)wresurforwiden&resurfproj.pdf
Friday, October 12, 2012 10:42 AM 129424 215-483001-04_pccshld.pdf
Friday, October 12, 2012 10:42 AM 116033 215-515001-03_nameplateforbridges.pdf
Friday, August 09, 2013 2:08 PM 523868 215-542001-04_ConcreteEndSectionsforPipeCulverts15inthru84inDia.pdf
Friday, August 09, 2013 2:09 PM 1224355 215-542006-01_MultipleConcreteEndSectionsforPipeCulverts15inThru84inDia.pdf
Friday, October 12, 2012 10:42 AM 550368 215-542011_ConcreteEndSectionsforEllipticalPipeCulverts15inThru72inEquivDia.pdf
Friday, October 12, 2012 10:42 AM 1298369 215-542016_MultipleConcreteEndSectionsforPipeCulverts15inThru72inEquivDia.pdf
Friday, October 12, 2012 10:42 AM 895271 215-542201-02_reinfconcendsectforpipeculv15-36indiaskewed.pdf
Friday, August 09, 2013 2:10 PM 579504 215-542206-03_reinfconcendsectforpipeculv42-60indiaskewed.pdf
Friday, October 12, 2012 10:42 AM 111919 215-542301-03_precastreinfconcflaredendsect.pdf
Friday, October 12, 2012 10:42 AM 91844 215-542306-02_precastreinfconcellipticalflaredendsect.pdf
Friday, August 09, 2013 2:11 PM 232551 215-542311-05_TraversablePipeGrate.pdf
Friday, October 12, 2012 10:42 AM 122330 215-542401-01_metalendsectforpipeculv.pdf
Friday, October 12, 2012 10:42 AM 123234 215-542406-01_metalendsectforpipearch.pdf
Friday, October 12, 2012 10:42 AM 141372 215-542501-02_inletboxtypea24in.pdf
Friday, October 12, 2012 10:42 AM 155629 215-542506-02_inletboxtypeb24in.pdf
Friday, October 12, 2012 10:43 AM 154692 215-542511-02_inletboxtypec24in.pdf
Friday, October 12, 2012 10:43 AM 170983 215-542516-03_inletboxtyped24in.pdf
Friday, October 12, 2012 10:43 AM 163274 215-542521-02_inletboxtypee24in.pdf
Friday, October 12, 2012 10:43 AM 193616 215-542526-03_inletboxtypef24in.pdf
Friday, October 12, 2012 10:43 AM 179167 215-542531-04_inletboxtypeg24in.pdf
Friday, October 12, 2012 10:43 AM 180165 215-542536-03_inletboxtypea36in.pdf
Friday, October 12, 2012 10:43 AM 178936 215-542541-02_inletboxtypea48in.pdf
Friday, October 12, 2012 10:43 AM 126535 215-542546-01_flushinletboxformedian.pdf
Friday, October 12, 2012 10:43 AM 74882 215-542601-03_rcpipeelbow.pdf
Friday, October 12, 2012 10:43 AM 121354 215-542606-02_rcpipetee.pdf
Friday, October 12, 2012 10:43 AM 238698 215-601001-04_subsurfdrains.pdf
Friday, October 12, 2012 10:43 AM 59099 215-601101-01_conchdwforpipedrain.pdf
Friday, October 12, 2012 10:43 AM 84687 215-602001-02_catchbasin-typea.pdf
Friday, October 12, 2012 10:43 AM 91646 215-602006-04_catchbasin-typeb-028.pdf
Friday, October 12, 2012 10:43 AM 66161 215-602011-02_catchbasin-typec.pdf
Friday, October 12, 2012 10:43 AM 109739 215-602016-02_catchbasin-typed.pdf
Friday, October 12, 2012 10:43 AM 175168 215-602101-02_drainstruc-type1&2&3.pdf
Friday, October 12, 2012 10:43 AM 176864 215-602106-01_drainstruc-type4&5&6.pdf
Friday, August 09, 2013 1:48 PM 61071 215-602301-04_inlet-typea.pdf
Friday, October 12, 2012 10:43 AM 77985 215-602306-03_inlet-typeb.pdf
Friday, October 12, 2012 10:43 AM 84391 215-602401-03_manhole-typea.pdf
Friday, August 09, 2013 2:22 PM 159522 215-602406-06_manhole-typea6ftdia.pdf
Friday, August 09, 2013 2:23 PM 166986 215-602411-04_manhole-typea7ftdia.pdf
Friday, August 09, 2013 2:26 PM 168855 215-602416-04_manhole-typea8ftdia.pdf
Friday, August 09, 2013 2:27 PM 166872 215-602421-04_manhole-typea9ftdia.pdf
Friday, October 12, 2012 10:43 AM 81734 215-602501-02_valvevault-typea.pdf
Friday, August 09, 2013 1:48 PM 79198 215-602601-03_precastreinfconcflatslabtop.pdf
Friday, October 12, 2012 10:43 AM 72380 215-602701-02_manholesteps.pdf
Friday, October 12, 2012 10:43 AM 61851 215-604001-03_frame&lids-type1.pdf
Friday, October 12, 2012 10:43 AM 82527 215-604006-04_Frame&GrateType3.pdf
Friday, October 12, 2012 10:43 AM 86929 215-604011-04_frame&gratetype3v.pdf
Friday, October 12, 2012 10:44 AM 52965 215-604016-02_frame&gratetype4.pdf
Friday, October 12, 2012 10:44 AM 81799 215-604021-02_baseframe&lidstype5.pdf
Friday, October 12, 2012 10:44 AM 66680 215-604026-02_Frame&GrateType6.pdf
Friday, October 12, 2012 10:44 AM 39418 215-604031-02_GrateType7.pdf
Friday, October 12, 2012 10:44 AM 39508 215-604036-02_GrateType8.pdf
Friday, October 12, 2012 10:44 AM 58633 215-604041-02_frame&gratetype9.pdf
Friday, October 12, 2012 10:44 AM 59518 215-604046-02_frame&gratetype10.pdf
Friday, October 12, 2012 10:44 AM 81697 215-604051-03_frame&gratetype11.pdf
Friday, October 12, 2012 10:44 AM 90606 215-604056-03_frame&gratetype11v.pdf
Friday, October 12, 2012 10:44 AM 63980 215-604061-02_frame&gratetype12.pdf
Friday, October 12, 2012 10:44 AM 84657 215-604066-02_frame&lidtype15.pdf
Friday, October 12, 2012 10:44 AM 65057 215-604071-04_frame&gratetype20.pdf
Friday, October 12, 2012 10:44 AM 80432 215-604076-04_frame&gratetype21.pdf
Friday, October 12, 2012 10:44 AM 73862 215-604081-04_frame&gratetype22.pdf
Friday, October 12, 2012 10:44 AM 85959 215-604086-02_frame&gratetype23.pdf
Friday, October 12, 2012 10:44 AM 79196 215-604091-02_frame&gratetype24.pdf
Friday, October 12, 2012 10:44 AM 81933 215-604101-01_medianinletfor24inrcpipe.pdf
Friday, October 12, 2012 10:44 AM 85732 215-604106-01_medianinletfor36inrcpipe.pdf
Friday, October 12, 2012 10:44 AM 258965 215-606001-05_conccurbtypeb&comboconcc&g.pdf
Friday, October 12, 2012 10:44 AM 229539 215-606006-02_outletsforconcc&g-typeb-6.24.pdf
Friday, October 12, 2012 10:44 AM 215406 215-606101-04_typeagut-inloutl&entr.pdf
Friday, October 12, 2012 10:44 AM 97964 215-606106-04_outltype1fortypeagut.pdf
Friday, October 12, 2012 10:44 AM 109199 215-606111-03_outltype2fortypeagut.pdf
Friday, October 12, 2012 10:44 AM 180521 215-606201-02_typebgut-inloutl&entr.pdf
Friday, October 12, 2012 10:44 AM 94537 215-606206-03_outltype1fortypebgut.pdf
Friday, October 12, 2012 10:44 AM 111253 215-606211-03_outltype2fortypebgut.pdf
Friday, October 12, 2012 10:44 AM 225707 215-606301-04_PCCIslands&Medians.pdf
Friday, October 12, 2012 10:44 AM 96491 215-606306-03_corrugatedpccmedians.pdf
Friday, October 12, 2012 10:44 AM 121772 215-606401-01_pavedditch.pdf
Friday, October 12, 2012 10:44 AM 259868 215-609006-05_BridgeApproachPvmt(DrainDetail).pdf
Friday, October 12, 2012 10:44 AM 225463 215-610001-06_ShldInletWithCurb.pdf
Friday, October 12, 2012 10:45 AM 315439 215-630001-10_SteelPlateBeamGrdrail.pdf
Friday, October 12, 2012 10:45 AM 186316 215-630101-09_GuardrailMountedOnExCulv.pdf
Friday, October 12, 2012 10:45 AM 65159 215-630106-1_LongSpanGuardrailOverCulvert.pdf
Friday, October 12, 2012 10:45 AM 92362 215-630201-06_PCC-BitStb@SteelPlateBeamGrdRail.pdf
Friday, October 12, 2012 10:45 AM 119735 215-630301-06_ShldWidenForType1GrdrailTerms.pdf
Friday, October 12, 2012 10:45 AM 89731 215-631006-08_TrafBarTermType1B.pdf
Friday, October 12, 2012 10:45 AM 90599 215-631011-09_TrafBarTermType2.pdf
Friday, October 12, 2012 10:45 AM 109502 215-631026-05_TrafBarTermType5.pdf
Friday, August 09, 2013 2:28 PM 212579 215-631031-12_TrafBarTermType6.pdf
Friday, October 12, 2012 10:45 AM 251632 215-631032-08_TrafBarTermType6A.pdf
Friday, August 09, 2013 2:29 PM 174249 215-631033-05_trafbartermtype6B.pdf
Friday, October 12, 2012 10:45 AM 101227 215-631046-04_trafbartermtype10.pdf
Friday, October 12, 2012 10:45 AM 109947 215-631051-03_trafbartermtype11.pdf
Friday, October 12, 2012 10:45 AM 108295 215-635001-01_delineators.pdf
Friday, October 12, 2012 10:45 AM 85275 215-635006-03_reflector&termmrkrplacemnt.pdf
Friday, October 12, 2012 10:45 AM 175785 215-635011-02_reflectormrkr&mountdetails.pdf
Friday, October 12, 2012 10:45 AM 311639 215-636001-02_cablerdgrd-singlestrand.pdf
Friday, October 12, 2012 10:45 AM 149333 215-637001-05_concbarrierdblface32in.pdf
Friday, October 12, 2012 10:45 AM 152159 215-637006-03_concbarrierdblface42in.pdf
Friday, October 12, 2012 10:45 AM 56910 215-638101-02_concglarescreen.pdf
Friday, October 12, 2012 10:45 AM 180591 215-639001-02_sightscrn-precstprestressconcpanelwall.pdf
Friday, October 12, 2012 10:45 AM 209915 215-640001-01_sightscrn-chainlinkfence.pdf
Friday, October 12, 2012 10:45 AM 88015 215-641001-01_sightscrn-cedarstckadefencetypes.pdf
Friday, October 12, 2012 10:45 AM 83580 215-641006-01_sightscrn-woodplankfencetypep.pdf
Friday, October 12, 2012 10:45 AM 92185 215-642001-02_ShoulderRumbleStrip16in.pdf
Friday, October 12, 2012 10:45 AM 60808 215-642006_ShoulderRumbleStrip8in.pdf
Friday, August 09, 2013 1:48 PM 72441 215-643001-02_SandModuleImpactAttenuators.pdf
Friday, October 12, 2012 10:45 AM 364296 215-664001-02_ChainLinkFence.pdf
Friday, October 12, 2012 10:45 AM 435506 215-665001-02_WovenWireFence.pdf
Friday, October 12, 2012 10:45 AM 68092 215-666001-01_ROWMrkrs.pdf
Friday, October 12, 2012 10:45 AM 45869 215-667001-01_DrainageMrkrs.pdf
Friday, October 12, 2012 10:45 AM 88326 215-667101-02_PermanentSurveyMrkrs.pdf
Friday, October 12, 2012 10:46 AM 46890 215-668001-01_MethOfResetting-USGS&NGS-Benchmarks.pdf
Friday, October 12, 2012 10:46 AM 52277 215-701001-02_OffRdOp-2L2W-15ftMinFromEOP-45MPH+.pdf
Friday, August 09, 2013 1:48 PM 67426 215-701006-05_OffRdOp-2L2W-15ftToEOP-45MPH+-.pdf
Friday, August 09, 2013 1:48 PM 61413 215-701011-04_OffRdMovingOp-2L2W-DayOnly-45MPH+.pdf
Friday, August 09, 2013 1:48 PM 68504 215-701101-04_OffRdOp-MultiLn-LessThan15ftToEOP.pdf
Friday, October 12, 2012 10:46 AM 54433 215-701106-02_OffRdOp-MultiLn-MoreThan15ftAway.pdf
Friday, October 12, 2012 10:46 AM 74922 215-701201-04_LnClosure2L2W-DayOnly.pdf
Friday, October 12, 2012 10:46 AM 68755 215-701206-03_LnClosure2L2W-NightOnly45MPH+.pdf
Friday, October 12, 2012 10:46 AM 68338 215-701301-04_LnClosure2L2W-ShortTimeOp.pdf
Friday, October 12, 2012 10:46 AM 78199 215-701306-03_LnClosure2L2W-SlowMoveOpDayOnly45MPH+.pdf
Friday, October 12, 2012 10:46 AM 68743 215-701311-03_LnClosure2L2W-MovingOpDayOnly.pdf
Friday, August 09, 2013 2:37 PM 152244 215-701316-08_LnClosure2L2W-BridgeRepair45MPH+.pdf
Friday, October 12, 2012 10:46 AM 161432 215-701321-13 LnClosure2L2W-BridgeRepair+Barrier.pdf
Friday, October 12, 2012 10:46 AM 82321 215-701326-04_LnClosure2L2W-PvmtWidening45MPH+.pdf
Friday, October 12, 2012 10:46 AM 99046 215-701331-04_LnClosure2L2W+RunAround45MPH+.pdf
Friday, October 12, 2012 10:46 AM 96414 215-701336-06_LnClosure2L2W-WorkAreasInSeries45MPH+.pdf
Tuesday, August 20, 2013 11:04 AM 95668 215-701400-07_ApprchToLnClosure-FrwayExpway.pdf
Friday, August 09, 2013 1:48 PM 104358 215-701401-08_LnClosureFrwayExpway.pdf
Friday, October 12, 2012 10:46 AM 88182 215-701402-09_LnClosureFrwayExpway+Barrier.pdf
Friday, August 09, 2013 1:48 PM 96449 215-701406-08_LnClosureFrwayExpway-DayOpOnly.pdf
Friday, October 12, 2012 10:46 AM 189455 215-701411-08_LnClosureMultiLn-EntrOrExitRamp45MPH+.pdf
Friday, October 12, 2012 10:46 AM 91969 215-701416-07_LnClosureFrwayExpway+Crossover&Barrier.pdf
Friday, August 09, 2013 1:48 PM 106407 215-701421-06_LnClosureMultiLn-DayOpOnly45-55MPH.pdf
Friday, August 09, 2013 1:48 PM 115715 215-701422-06_LnClosureMultiLn-45-55MPH.pdf
Friday, August 09, 2013 1:48 PM 110814 215-701423-07_LnClosureMultiln+Barrier45-55MPH.pdf
Friday, August 09, 2013 1:49 PM 89014 215-701426-06_LnClosureMultiLn-IntermittantOrMovingOp45MPH+.pdf
Friday, August 09, 2013 1:49 PM 91907 215-701427-02_LnClosureMultiLn-IntermittantOrMovingOpLTorEQ40MPH.pdf
Monday, August 12, 2013 9:03 AM 68082 215-701428_TrafficControlSetupRemovalFreewayExpressway-001.pdf
Friday, August 09, 2013 1:49 PM 125957 215-701431-09_LnClosureMultiLnUndivided+Crossover45-55MPH.pdf
Friday, August 09, 2013 1:49 PM 114956 215-701446-05_TwoLnClosure-FrwayExpway.pdf
Friday, August 09, 2013 1:49 PM 73302 215-701451-02_RampClosureFreewayExp.pdf
Friday, August 09, 2013 1:49 PM 51131 215-701456-03_PartialExitRampClosureFreewayExpressway.pdf
Friday, October 12, 2012 10:46 AM 80430 215-701501-06_UrbanLnClosure2L2W-Undivided.pdf
Friday, August 09, 2013 2:43 PM 124878 215-701502-06_UrbanLnClosure2L2W+BidirectLeftTurnLn.pdf
Friday, August 09, 2013 2:43 PM 118642 215-701601-09_UrbanLnClosureMultiLn1W2W+NontrvsableMed.pdf
Friday, August 09, 2013 2:44 PM 212762 215-701602-07_UrbanLnClosureMultiLn2W+BidirectLeftTurnLn.pdf
Friday, August 09, 2013 2:45 PM 134697 215-701606-09_UrbanLnClosureMultiLn2W+MountableMed.pdf
Friday, August 09, 2013 1:49 PM 103030 215-701701-09_UrbanLnClosureMultiLnIntersection.pdf
Friday, October 12, 2012 10:46 AM 146785 215-701801-05_SidewalkCornerOrCrosswalkClosure.pdf
Friday, August 09, 2013 2:46 PM 270170 215-701901-03_TrafCntrlDevices.pdf
Friday, October 12, 2012 10:46 AM 176123 215-704001-07_TempConcBarrier.pdf
Friday, October 12, 2012 10:47 AM 85372 215-720001-01_SignPanelMountDetails.pdf
Friday, August 09, 2013 1:49 PM 77246 215-720006-04_SignPanelErectDetails.pdf
Friday, October 12, 2012 10:47 AM 69568 215-720011-01_MetalPostsForSignsMrkrs&Delineators.pdf
Friday, October 12, 2012 10:47 AM 89832 215-720016-03_MastArmMountedStNameSigns.pdf
Friday, October 12, 2012 10:47 AM 187364 215-720021-02_SignPanels-ExtrudedAlumType.pdf
Friday, October 12, 2012 10:47 AM 65757 215-728001-01_TelescopingSteelSignSupport.pdf
Friday, October 12, 2012 10:47 AM 87903 215-729001-01_AppOfTypesA&BPosts.pdf
Friday, October 12, 2012 10:47 AM 64062 215-731001-01_BaseForTelescopingSteelSignSupport.pdf
Friday, August 09, 2013 2:48 PM 140482 215-780001-04_TypicalPvmtMrkings.pdf
Friday, October 12, 2012 10:47 AM 90060 215-781001-03_TypicalAppRaisedReflcPvmtMrkrs.pdf
Friday, October 12, 2012 10:47 AM 64225 215-782001_PrismaticReflectorsOnCurbs.pdf
Friday, October 12, 2012 10:47 AM 84373 215-805001-01_ElecSrvcInstallDetails.pdf
Friday, October 12, 2012 10:47 AM 75961 215-814001-02_Handholes.pdf
Friday, October 12, 2012 10:47 AM 82179 215-814006-02_DoubleHandholes.pdf
Friday, August 09, 2013 1:49 PM 144332 215-821101_Luminaire Wiring Diagram.pdf
Friday, October 12, 2012 10:47 AM 186813 215-825001-01_LightingControllerPoleMount240V.pdf
Friday, October 12, 2012 10:47 AM 111443 215-825006-01_LightingControllerPoleMount480V.pdf
Friday, October 12, 2012 10:47 AM 111398 215-825011-02_LightingControllerPedestalMount240V.pdf
Friday, October 12, 2012 10:47 AM 120039 215-825016-02_LightingControllerPedestalMount480V.pdf
Friday, October 12, 2012 10:47 AM 115380 215-825021-02_LightingControllerBaseMount240V.pdf
Friday, October 12, 2012 10:47 AM 124152 215-825026-02_LightingControllerBaseMount480V.pdf
Friday, October 12, 2012 10:47 AM 151347 215-826001_NavigationObstructionLightingController240V.pdf
Friday, October 12, 2012 10:47 AM 159378 215-826006_NavigationObstructionLightingController480V.dgn.pdf
Friday, August 09, 2013 2:52 PM 187307 215-830001-02_LightPoleAluminumMastArm.pdf
Friday, August 09, 2013 2:53 PM 211028 215-830006-02_LightPoleAluminumDavitArm.pdf
Friday, August 09, 2013 2:53 PM 184274 215-830011-02_LightPoleSteelMastArm.pdf
Friday, August 09, 2013 2:54 PM 202851 215-830016-02_LightPoleSteelDavitArm.pdf
Friday, August 09, 2013 2:55 PM 181472 215-830021-02_LightPoleSteelTenonTop.pdf
Friday, October 12, 2012 10:47 AM 107563 215-830026_TemporaryRoadwayLighting.pdf
Friday, October 12, 2012 10:47 AM 168890 215-835001_LightTower.pdf
Friday, October 12, 2012 10:47 AM 157880 215-836001-02_LightPoleFoundation.pdf
Friday, August 09, 2013 1:49 PM 112860 215-836006-01_LightPoleFoundationWith32inMedianBarrier.pdf
Friday, August 09, 2013 1:49 PM 111917 215-836011-01_LightPoleFoundationWith42inMedianBarrier.pdf
Friday, August 09, 2013 2:56 PM 193465 215-837001-03_LightTowerFoundation.pdf
Friday, August 09, 2013 1:49 PM 94550 215-838001_BreakawayDevices.pdf
Friday, October 12, 2012 10:48 AM 120586 215-857001-01_StdPhaseDesignationDiagrams&PhaseSeq.pdf
Friday, October 12, 2012 10:48 AM 77881 215-857006-01_SupervisedRRInterconnectCircuit-.pdf
Friday, October 12, 2012 10:48 AM 45246 215-862001-01_UPS.pdf
Friday, October 12, 2012 10:48 AM 106181 215-873001-02_TrafSignalGround&Bond.pdf
Friday, August 09, 2013 1:49 PM 70897 215-876001-03_PedestrianPushButtonPost.pdf
Friday, October 12, 2012 10:48 AM 75791 215-877001-05_SteelMastArmAssembly&Pole16'thre55'.pdf
Friday, October 12, 2012 10:48 AM 77847 215-877002-02_SteelMastArmAssembly&Pole56'thru75'.pdf
Friday, October 12, 2012 10:48 AM 91422 215-877006-04_SteelMastArmAssembly&PoleWithDualMastarms.pdf
Friday, October 12, 2012 10:48 AM 108853 215-877011-05_SteelComboMastArmAssembly&Pole16'thru55'.pdf
Friday, October 12, 2012 10:48 AM 110349 215-877012-02_SteelComboMastArmAssembly&Pole56'thru75'.pdf
Friday, October 12, 2012 10:48 AM 173993 215-878001-09_ConcreteFoundationDetails.pdf
Friday, October 12, 2012 10:48 AM 109807 215-880001-01_SpanWireMountSignals&FlashBeaconInstall.pdf
Friday, October 12, 2012 10:48 AM 84967 215-880006-01_TrfSignalMountDetails-Post&BracketMount.pdf
Friday, October 12, 2012 10:48 AM 108245 215-886001-01_DetectorLoopInstallations.pdf
Friday, October 12, 2012 10:48 AM 59114 215-886006-01_TypicalLayoutsForDetectionLoops.pdf
Friday, October 12, 2012 10:48 AM 277449 215-BLR10-6_PCCPvmtSpecial-NonReinf.pdf
Friday, October 12, 2012 10:48 AM 126098 215-BLR14-10_PCCPvmt-NonReinf.pdf
Friday, October 12, 2012 10:48 AM 111752 215-BLR17-4_TrafCntrlDevices-DayLaborConstr.pdf
Friday, October 12, 2012 10:48 AM 123558 215-BLR18-5_TrafCntrlDevices-DayLaborMaint.pdf
Friday, October 12, 2012 10:48 AM 204872 215-BLR20-7_TrafBarrierTermType5R.pdf
Friday, October 12, 2012 10:48 AM 85133 215-BLR21-9_TypAppTrafCntrlDevices-ConstrOnRuralLocalHwys.pdf
Friday, October 12, 2012 10:48 AM 82277 215-BLR22-7_TypAppTrafCntrlDevices-ConstrOnRuralLocalHwys(2L2W-RdClsdToThruTraf).pdf
Friday, October 12, 2012 10:48 AM 192639 215-BLR23-4_TrafBarrierTermType1.pdf
Friday, October 12, 2012 10:48 AM 94450 215-BLR24-2_MailboxTurn-LocalRds.pdf
Friday, October 12, 2012 10:48 AM 50755 215-BLR25-1_Type1ABarrForNonNHSRts.pdf
Friday, October 12, 2012 10:48 AM 336689 215-BLR26-3_SteelPlateBeemGR29inchHt.pdf
Friday, October 12, 2012 10:48 AM 128710 215-BLR27-1_TrafBarTermType5A.pdf